createdAt,value
2023-02-22T00:02:25.175Z,7.96
2023-02-22T00:04:53.216Z,8.00
2023-02-22T00:07:37.928Z,8.03
2023-02-22T00:10:13.434Z,7.99
2023-02-22T00:12:42.627Z,7.98
2023-02-22T00:15:28.717Z,7.91
2023-02-22T00:18:11.827Z,7.94
2023-02-22T00:21:00.181Z,7.96
2023-02-22T00:23:54.702Z,7.92
2023-02-22T00:26:25.030Z,7.96
2023-02-22T00:28:55.210Z,7.94
2023-02-22T00:31:29.373Z,7.91
2023-02-22T00:33:57.619Z,7.86
2023-02-22T00:36:27.653Z,7.88
2023-02-22T00:38:58.194Z,7.88
2023-02-22T00:41:28.681Z,7.86
2023-02-22T00:43:56.761Z,7.84
2023-02-22T00:46:28.298Z,7.83
2023-02-22T00:48:56.128Z,7.87
2023-02-22T00:51:28.754Z,7.83
2023-02-22T00:53:56.542Z,7.86
2023-02-22T00:56:25.134Z,7.86
2023-02-22T00:58:57.256Z,7.82
2023-02-22T01:01:32.400Z,7.83
2023-02-22T01:04:31.684Z,7.81
2023-02-22T01:07:02.708Z,7.80
2023-02-22T01:09:32.793Z,7.83
2023-02-22T01:12:01.155Z,7.75
2023-02-22T01:14:34.871Z,7.77
2023-02-22T01:17:02.914Z,7.78
2023-02-22T01:19:32.330Z,7.80
2023-02-22T01:22:01.469Z,7.81
2023-02-22T01:24:29.463Z,7.76
2023-02-22T01:26:58.683Z,7.75
2023-02-22T01:29:26.575Z,7.75
2023-02-22T01:31:57.579Z,7.78
2023-02-22T01:34:26.681Z,7.74
2023-02-22T01:36:54.726Z,7.75
2023-02-22T01:39:22.768Z,7.70
2023-02-22T01:41:53.925Z,7.76
2023-02-22T01:44:28.449Z,7.75
2023-02-22T01:46:58.992Z,7.72
2023-02-22T01:49:31.048Z,7.76
2023-02-22T01:52:04.411Z,7.70
2023-02-22T01:54:37.650Z,7.77
2023-02-22T01:57:13.504Z,7.74
2023-02-22T01:59:46.148Z,7.72
2023-02-22T02:02:18.830Z,7.72
2023-02-22T02:04:47.216Z,7.73
2023-02-22T02:07:18.416Z,7.73
2023-02-22T02:09:53.527Z,7.70
2023-02-22T02:12:24.595Z,7.68
2023-02-22T02:14:54.795Z,7.70
2023-02-22T02:17:25.284Z,7.70
2023-02-22T02:20:01.390Z,7.67
2023-02-22T02:22:43.705Z,7.64
2023-02-22T02:25:31.995Z,7.70
2023-02-22T02:28:30.355Z,7.68
2023-02-22T02:31:26.200Z,7.67
2023-02-22T02:34:01.334Z,7.66
2023-02-22T02:36:35.914Z,7.63
2023-02-22T02:39:19.521Z,7.67
2023-02-22T02:41:53.608Z,7.63
2023-02-22T02:44:27.600Z,7.64
2023-02-22T02:47:01.350Z,7.66
2023-02-22T02:49:37.747Z,7.58
2023-02-22T02:52:08.794Z,7.61
2023-02-22T02:54:39.535Z,7.64
2023-02-22T02:57:09.467Z,7.63
2023-02-22T02:59:38.926Z,7.59
2023-02-22T03:02:29.268Z,7.63
2023-02-22T03:05:21.648Z,7.61
2023-02-22T03:07:57.747Z,7.60
2023-02-22T03:10:39.868Z,7.58
2023-02-22T03:13:19.914Z,7.58
2023-02-22T03:15:57.656Z,7.59
2023-02-22T03:18:38.374Z,7.56
2023-02-22T03:21:17.507Z,7.59
2023-02-22T03:23:51.338Z,7.55
2023-02-22T03:26:26.126Z,7.60
2023-02-22T03:28:57.391Z,7.59
2023-02-22T03:31:29.747Z,7.55
2023-02-22T03:34:02.759Z,7.54
2023-02-22T03:36:39.064Z,7.57
2023-02-22T03:39:16.060Z,7.53
2023-02-22T03:41:51.435Z,7.51
2023-02-22T03:44:25.295Z,7.45
2023-02-22T03:46:57.169Z,7.42
2023-02-22T03:49:33.532Z,7.47
2023-02-22T03:52:04.432Z,7.46
2023-02-22T03:54:35.178Z,7.51
2023-02-22T03:57:10.751Z,7.51
2023-02-22T03:59:39.195Z,7.50
2023-02-22T04:02:07.448Z,7.45
2023-02-22T04:04:36.346Z,7.42
2023-02-22T04:07:05.807Z,7.38
2023-02-22T04:09:34.798Z,7.46
2023-02-22T04:12:04.964Z,7.46
2023-02-22T04:14:36.392Z,7.46
2023-02-22T04:17:04.808Z,7.46
2023-02-22T04:19:35.260Z,7.46
2023-02-22T04:22:03.764Z,7.44
2023-02-22T04:24:33.117Z,7.46
2023-02-22T04:27:01.122Z,7.45
2023-02-22T04:29:31.140Z,7.47
2023-02-22T04:31:59.187Z,7.46
2023-02-22T04:34:35.618Z,7.47
2023-02-22T04:37:03.887Z,7.47
2023-02-22T04:39:33.855Z,7.46
2023-02-22T04:42:01.792Z,7.36
2023-02-22T04:44:29.917Z,7.44
2023-02-22T04:47:04.842Z,7.40
2023-02-22T04:49:48.837Z,7.39
2023-02-22T04:52:19.235Z,7.41
2023-02-22T04:55:05.961Z,7.37
2023-02-22T04:57:40.906Z,7.36
2023-02-22T05:00:11.262Z,7.31
2023-02-22T05:02:40.958Z,7.34
2023-02-22T05:05:09.383Z,7.32
2023-02-22T05:07:48.107Z,7.30
2023-02-22T05:10:19.297Z,7.22
2023-02-22T05:12:57.395Z,7.20
2023-02-22T05:15:35.223Z,7.14
2023-02-22T05:18:03.373Z,7.13
2023-02-22T05:20:33.893Z,7.19
2023-02-22T05:23:05.195Z,7.17
2023-02-22T05:25:36.749Z,7.17
2023-02-22T05:28:07.073Z,7.16
2023-02-22T05:30:39.732Z,7.12
2023-02-22T05:33:08.130Z,7.17
2023-02-22T05:35:37.860Z,7.12
2023-02-22T05:38:06.129Z,7.09
2023-02-22T05:40:36.346Z,7.04
2023-02-22T05:43:04.907Z,7.03
2023-02-22T05:45:33.973Z,6.97
2023-02-22T05:48:01.987Z,6.97
2023-02-22T05:50:30.545Z,7.00
2023-02-22T05:53:00.443Z,7.00
2023-02-22T05:55:29.023Z,6.97
2023-02-22T05:57:58.326Z,7.01
2023-02-22T06:00:28.892Z,7.01
2023-02-22T06:02:58.531Z,7.00
2023-02-22T06:05:29.577Z,6.95
2023-02-22T06:07:58.524Z,6.95
2023-02-22T06:10:33.759Z,6.93
2023-02-22T06:13:05.093Z,6.94
2023-02-22T06:15:33.539Z,6.98
2023-02-22T06:18:02.432Z,6.95
2023-02-22T06:20:33.385Z,6.75
2023-02-22T06:23:01.624Z,6.93
2023-02-22T06:25:32.490Z,6.93
2023-02-22T06:28:03.601Z,6.88
2023-02-22T06:30:33.544Z,6.95
2023-02-22T06:33:02.295Z,6.91
2023-02-22T06:35:30.945Z,6.87
2023-02-22T06:37:59.927Z,6.87
2023-02-22T06:40:29.574Z,6.87
2023-02-22T06:42:58.435Z,6.79
2023-02-22T06:45:26.637Z,6.80
2023-02-22T06:47:56.718Z,6.77
2023-02-22T06:50:28.870Z,6.79
2023-02-22T06:52:57.877Z,6.71
2023-02-22T06:55:28.168Z,6.72
2023-02-22T06:57:56.763Z,6.71
2023-02-22T07:00:28.980Z,6.66
2023-02-22T07:02:59.831Z,6.60
2023-02-22T07:05:28.967Z,6.63
2023-02-22T07:08:04.682Z,6.59
2023-02-22T07:10:35.857Z,6.57
2023-02-22T07:13:04.861Z,6.59
2023-02-22T07:15:35.432Z,6.57
2023-02-22T07:18:06.172Z,6.58
2023-02-22T07:20:38.119Z,6.48
2023-02-22T07:23:07.248Z,6.52
2023-02-22T07:25:35.935Z,6.49
2023-02-22T07:28:04.910Z,6.49
2023-02-22T07:30:35.224Z,6.56
2023-02-22T07:33:10.296Z,6.62
2023-02-22T07:35:41.207Z,6.49
2023-02-22T07:38:13.344Z,6.48
2023-02-22T07:40:42.434Z,6.75
2023-02-22T07:43:17.191Z,6.81
2023-02-22T07:45:46.212Z,6.87
2023-02-22T07:48:20.830Z,6.94
2023-02-22T07:51:02.420Z,7.09
2023-02-22T07:53:33.625Z,7.15
2023-02-22T07:56:05.275Z,7.05
2023-02-22T07:58:35.439Z,7.12
2023-02-22T08:01:15.154Z,7.16
2023-02-22T08:03:47.881Z,7.15
2023-02-22T08:06:16.353Z,7.10
2023-02-22T08:08:45.842Z,7.11
2023-02-22T08:11:14.658Z,7.04
2023-02-22T08:13:44.963Z,7.15
2023-02-22T08:16:12.967Z,7.36
2023-02-22T08:18:41.330Z,7.27
2023-02-22T08:21:12.686Z,7.32
2023-02-22T08:23:44.260Z,7.40
2023-02-22T08:26:15.929Z,7.23
2023-02-22T08:28:49.448Z,7.34
2023-02-22T08:31:19.323Z,7.42
2023-02-22T08:33:50.913Z,7.36
2023-02-22T08:36:21.412Z,7.45
2023-02-22T08:38:49.432Z,7.51
2023-02-22T08:41:17.505Z,7.42
2023-02-22T08:43:45.813Z,7.40
2023-02-22T08:46:20.124Z,7.39
2023-02-22T08:48:52.221Z,7.45
2023-02-22T08:51:22.389Z,7.50
2023-02-22T08:53:52.332Z,7.58
2023-02-22T08:56:23.597Z,7.66
2023-02-22T08:59:02.496Z,7.73
2023-02-22T09:01:59.155Z,7.86
2023-02-22T09:04:28.699Z,7.89
2023-02-22T09:07:00.724Z,7.64
2023-02-22T09:09:30.939Z,7.88
2023-02-22T09:12:53.875Z,8.00
2023-02-22T09:15:30.768Z,7.95
2023-02-22T09:17:59.268Z,8.03
2023-02-22T09:20:28.908Z,7.86
2023-02-22T09:22:59.623Z,8.01
2023-02-22T09:25:29.809Z,8.19
2023-02-22T09:27:59.235Z,8.41
2023-02-22T09:30:32.502Z,8.66
2023-02-22T09:33:03.313Z,8.72
2023-02-22T09:35:36.679Z,9.01
2023-02-22T09:38:08.603Z,8.79
2023-02-22T09:40:47.895Z,8.72
2023-02-22T09:43:35.897Z,9.18
2023-02-22T09:46:23.605Z,9.03
2023-02-22T09:49:19.984Z,8.92
2023-02-22T09:51:52.680Z,8.89
2023-02-22T09:54:26.839Z,8.90
2023-02-22T09:57:02.143Z,8.97
2023-02-22T09:59:37.510Z,8.85
2023-02-22T10:02:22.678Z,8.93
2023-02-22T10:04:58.021Z,8.87
2023-02-22T10:07:32.357Z,8.92
2023-02-22T10:10:06.642Z,8.55
2023-02-22T10:12:41.716Z,8.48
2023-02-22T10:15:48.714Z,8.44
2023-02-22T10:18:56.301Z,8.52
2023-02-22T10:21:53.685Z,8.54
2023-02-22T10:24:38.151Z,8.54
2023-02-22T10:27:17.340Z,8.39
2023-02-22T10:29:51.331Z,8.58
2023-02-22T10:32:25.534Z,8.50
2023-02-22T10:34:56.102Z,8.61
2023-02-22T10:37:29.705Z,8.63
2023-02-22T10:40:07.464Z,8.69
2023-02-22T10:42:37.024Z,8.90
2023-02-22T10:45:24.954Z,8.90
2023-02-22T10:47:59.001Z,8.90
2023-02-22T10:50:29.639Z,8.91
2023-02-22T10:52:59.847Z,8.84
2023-02-22T10:55:29.586Z,8.92
2023-02-22T10:58:06.960Z,9.29
2023-02-22T11:00:37.967Z,9.41
2023-02-22T11:03:18.378Z,9.47
2023-02-22T11:05:46.902Z,9.41
2023-02-22T11:08:25.886Z,9.44
2023-02-22T11:10:56.034Z,9.86
2023-02-22T11:13:31.293Z,9.74
2023-02-22T11:16:03.214Z,9.61
2023-02-22T11:18:34.256Z,9.74
2023-02-22T11:21:07.893Z,9.78
2023-02-22T11:23:39.944Z,10.21
2023-02-22T11:26:11.290Z,9.81
2023-02-22T11:28:49.273Z,10.12
2023-02-22T11:31:20.288Z,9.81
2023-02-22T11:33:52.736Z,9.67
2023-02-22T11:36:38.047Z,9.56
2023-02-22T11:39:11.522Z,9.31
2023-02-22T11:41:40.119Z,9.27
2023-02-22T11:44:25.866Z,9.11
2023-02-22T11:46:56.029Z,9.21
2023-02-22T11:49:33.767Z,9.01
2023-02-22T11:52:14.170Z,9.19
2023-02-22T11:55:07.507Z,9.12
2023-02-22T11:57:51.657Z,9.37
2023-02-22T12:00:28.653Z,9.51
2023-02-22T12:03:16.454Z,9.89
2023-02-22T12:06:07.198Z,10.03
2023-02-22T12:08:46.912Z,10.23
2023-02-22T12:11:24.060Z,10.07
2023-02-22T12:14:19.819Z,10.18
2023-02-22T12:17:13.981Z,10.30
2023-02-22T12:19:47.372Z,10.69
2023-02-22T12:22:21.413Z,10.79
2023-02-22T12:25:03.959Z,10.51
2023-02-22T12:27:42.217Z,11.10
2023-02-22T12:30:16.548Z,11.20
2023-02-22T12:32:50.812Z,11.08
2023-02-22T12:35:23.712Z,10.70
2023-02-22T12:38:04.145Z,10.45
2023-02-22T12:40:38.681Z,10.46
2023-02-22T12:43:16.708Z,10.30
2023-02-22T12:45:50.406Z,10.32
2023-02-22T12:48:32.656Z,10.38
2023-02-22T12:51:20.709Z,10.41
2023-02-22T12:53:58.625Z,9.95
2023-02-22T12:56:33.752Z,9.96
2023-02-22T12:59:08.366Z,9.97
2023-02-22T13:02:12.419Z,10.51
2023-02-22T13:04:50.690Z,10.32
2023-02-22T13:07:43.760Z,10.87
2023-02-22T13:10:35.878Z,11.02
2023-02-22T13:13:15.210Z,11.46
2023-02-22T13:16:23.750Z,11.83
2023-02-22T13:19:03.819Z,11.41
2023-02-22T13:21:45.900Z,11.17
2023-02-22T13:24:26.582Z,11.68
2023-02-22T13:27:00.243Z,11.49
2023-02-22T13:29:35.808Z,11.75
2023-02-22T13:32:21.360Z,11.54
2023-02-22T13:35:22.027Z,11.21
2023-02-22T13:38:24.990Z,11.03
2023-02-22T13:41:13.751Z,10.62
2023-02-22T13:44:15.349Z,10.46
2023-02-22T13:47:07.362Z,10.23
2023-02-22T13:49:55.998Z,10.30
2023-02-22T13:52:27.142Z,10.37
2023-02-22T13:55:02.075Z,10.38
2023-02-22T13:57:37.767Z,10.53
2023-02-22T14:00:24.992Z,10.53
2023-02-22T14:03:03.172Z,10.39
2023-02-22T14:05:51.086Z,10.28
2023-02-22T14:08:42.093Z,10.21
2023-02-22T14:11:54.170Z,9.95
2023-02-22T14:14:24.820Z,9.89
2023-02-22T14:17:28.014Z,9.87
2023-02-22T14:20:05.749Z,9.80
2023-02-22T14:22:35.817Z,9.72
2023-02-22T14:25:03.739Z,9.80
2023-02-22T14:27:41.744Z,9.78
2023-02-22T14:30:26.291Z,9.76
2023-02-22T14:32:54.631Z,9.84
2023-02-22T14:35:33.219Z,9.71
2023-02-22T14:38:15.598Z,9.71
2023-02-22T14:40:48.398Z,9.61
2023-02-22T14:43:21.019Z,9.67
2023-02-22T14:45:54.496Z,9.58
2023-02-22T14:48:29.454Z,9.51
2023-02-22T14:51:08.849Z,9.39
2023-02-22T14:53:49.751Z,9.34
2023-02-22T14:56:24.055Z,9.26
2023-02-22T14:58:56.806Z,9.20
2023-02-22T15:01:44.428Z,9.16
2023-02-22T15:04:21.252Z,9.19
2023-02-22T15:06:50.003Z,9.33
2023-02-22T15:09:25.729Z,9.39
2023-02-22T15:12:12.922Z,9.36
2023-02-22T15:14:44.775Z,9.40
2023-02-22T15:17:21.051Z,9.53
2023-02-22T15:19:50.194Z,9.46
2023-02-22T15:22:23.788Z,9.46
2023-02-22T15:25:00.142Z,9.48
2023-02-22T15:27:28.760Z,9.42
2023-02-22T15:30:04.604Z,9.42
2023-02-22T15:32:37.017Z,9.47
2023-02-22T15:35:17.594Z,9.39
2023-02-22T15:37:46.869Z,9.32
2023-02-22T15:40:17.501Z,9.42
2023-02-22T15:42:54.047Z,9.34
2023-02-22T15:45:25.198Z,9.23
2023-02-22T15:47:55.103Z,9.27
2023-02-22T15:50:25.976Z,9.28
2023-02-22T15:52:59.126Z,9.25
2023-02-22T15:55:30.113Z,9.20
2023-02-22T15:58:01.723Z,9.23
2023-02-22T16:00:36.344Z,9.22
2023-02-22T16:03:10.654Z,9.18
2023-02-22T16:05:43.171Z,9.12
2023-02-22T16:08:18.004Z,9.15
2023-02-22T16:10:54.561Z,9.16
2023-02-22T16:13:31.973Z,9.12
2023-02-22T16:16:03.530Z,9.07
2023-02-22T16:18:36.255Z,9.02
2023-02-22T16:21:20.020Z,8.97
2023-02-22T16:23:49.860Z,8.92
2023-02-22T16:26:28.152Z,8.89
2023-02-22T16:28:58.525Z,8.86
2023-02-22T16:31:28.560Z,8.90
2023-02-22T16:33:58.048Z,8.90
2023-02-22T16:36:39.321Z,8.89
2023-02-22T16:39:08.891Z,8.82
2023-02-22T16:41:36.831Z,8.86
2023-02-22T16:44:08.013Z,8.73
2023-02-22T16:46:37.969Z,8.79
2023-02-22T16:49:08.073Z,8.68
2023-02-22T16:51:42.522Z,8.75
2023-02-22T16:54:13.206Z,8.71
2023-02-22T16:56:41.902Z,8.70
2023-02-22T16:59:14.673Z,8.67
2023-02-22T17:01:42.793Z,8.55
2023-02-22T17:04:15.946Z,8.57
2023-02-22T17:06:43.984Z,8.52
2023-02-22T17:09:16.273Z,8.41
2023-02-22T17:11:45.409Z,8.43
2023-02-22T17:14:23.520Z,8.44
2023-02-22T17:17:02.459Z,8.44
2023-02-22T17:19:44.367Z,8.39
2023-02-22T17:22:34.879Z,8.38
2023-02-22T17:25:53.945Z,8.37
2023-02-22T17:28:24.836Z,8.35
2023-02-22T17:30:53.903Z,8.38
2023-02-22T17:33:26.861Z,8.33
2023-02-22T17:35:59.069Z,8.35
2023-02-22T17:38:30.059Z,8.33
2023-02-22T17:40:59.141Z,8.34
2023-02-22T17:43:30.119Z,8.37
2023-02-22T17:46:08.992Z,8.29
2023-02-22T17:48:38.265Z,8.34
2023-02-22T17:51:08.999Z,8.26
2023-02-22T17:53:37.598Z,8.26
2023-02-22T17:56:10.469Z,8.26
2023-02-22T17:58:38.577Z,8.24
2023-02-22T18:01:07.954Z,8.25
2023-02-22T18:03:39.476Z,8.21
2023-02-22T18:06:09.217Z,8.29
2023-02-22T18:08:39.068Z,8.33
2023-02-22T18:11:09.093Z,8.26
2023-02-22T18:13:37.018Z,8.27
2023-02-22T18:16:05.835Z,8.30
2023-02-22T18:18:34.104Z,8.35
2023-02-22T18:21:02.606Z,8.31
2023-02-22T18:23:33.705Z,8.24
2023-02-22T18:26:11.133Z,8.31
2023-02-22T18:28:53.604Z,8.21
2023-02-22T18:31:23.518Z,8.15
2023-02-22T18:33:54.010Z,8.10
2023-02-22T18:36:23.775Z,8.16
2023-02-22T18:38:54.726Z,8.03
2023-02-22T18:41:26.296Z,8.01
2023-02-22T18:43:58.239Z,8.06
2023-02-22T18:46:27.778Z,8.01
2023-02-22T18:48:57.397Z,8.00
2023-02-22T18:51:27.258Z,8.05
2023-02-22T18:54:01.033Z,8.04
2023-02-22T18:56:31.023Z,7.94
2023-02-22T18:59:01.145Z,8.06
2023-02-22T19:01:29.880Z,8.01
2023-02-22T19:03:57.827Z,8.03
2023-02-22T19:06:25.960Z,8.04
2023-02-22T19:08:54.060Z,8.04
2023-02-22T19:11:25.771Z,8.00
2023-02-22T19:13:57.190Z,7.99
2023-02-22T19:16:29.739Z,7.94
2023-02-22T19:18:59.731Z,7.96
2023-02-22T19:21:29.601Z,8.04
2023-02-22T19:23:58.138Z,7.98
2023-02-22T19:26:29.438Z,7.97
2023-02-22T19:28:59.673Z,7.87
2023-02-22T19:31:31.598Z,7.90
2023-02-22T19:34:01.729Z,7.89
2023-02-22T19:36:30.374Z,7.90
2023-02-22T19:39:01.688Z,7.95
2023-02-22T19:41:32.033Z,7.96
2023-02-22T19:44:00.783Z,7.86
2023-02-22T19:46:29.009Z,7.94
2023-02-22T19:48:58.065Z,7.83
2023-02-22T19:51:28.276Z,7.81
2023-02-22T19:54:02.515Z,7.89
2023-02-22T19:56:34.942Z,7.91
2023-02-22T19:59:12.574Z,7.91
2023-02-22T20:01:44.302Z,7.88
2023-02-22T20:04:18.150Z,7.83
2023-02-22T20:06:47.873Z,7.80
2023-02-22T20:09:18.178Z,7.88
2023-02-22T20:11:48.802Z,7.86
2023-02-22T20:14:18.544Z,7.83
2023-02-22T20:16:47.047Z,7.86
2023-02-22T20:19:15.213Z,7.79
2023-02-22T20:21:43.354Z,7.74
2023-02-22T20:24:15.236Z,7.71
2023-02-22T20:26:44.648Z,7.71
2023-02-22T20:29:15.177Z,7.58
2023-02-22T20:31:49.421Z,7.64
2023-02-22T20:34:17.893Z,7.62
2023-02-22T20:36:45.897Z,7.54
2023-02-22T20:39:15.112Z,7.47
2023-02-22T20:41:44.994Z,7.51
2023-02-22T20:44:17.330Z,7.40
2023-02-22T20:46:46.957Z,7.50
2023-02-22T20:49:17.802Z,7.49
2023-02-22T20:51:47.475Z,7.46
2023-02-22T20:54:16.194Z,7.49
2023-02-22T20:56:46.083Z,7.43
2023-02-22T20:59:18.159Z,7.39
2023-02-22T21:01:47.487Z,7.34
2023-02-22T21:04:15.413Z,7.30
2023-02-22T21:06:44.968Z,7.26
2023-02-22T21:09:14.956Z,7.27
2023-02-22T21:11:43.180Z,7.22
2023-02-22T21:14:12.441Z,7.14
2023-02-22T21:16:41.830Z,7.21
2023-02-22T21:19:10.409Z,7.24
2023-02-22T21:21:39.301Z,7.24
2023-02-22T21:24:09.127Z,7.23
2023-02-22T21:26:39.546Z,7.20
2023-02-22T21:29:13.482Z,7.20
2023-02-22T21:31:47.322Z,7.17
2023-02-22T21:34:29.858Z,7.12
2023-02-22T21:37:08.603Z,7.08
2023-02-22T21:39:40.766Z,7.06
2023-02-22T21:42:15.054Z,7.17
2023-02-22T21:44:43.246Z,7.16
2023-02-22T21:47:15.535Z,7.20
2023-02-22T21:49:43.894Z,7.21
2023-02-22T21:52:12.901Z,7.13
2023-02-22T21:54:46.883Z,7.13
2023-02-22T21:57:16.094Z,7.07
2023-02-22T21:59:44.979Z,7.15
2023-02-22T22:02:14.841Z,7.10
2023-02-22T22:04:45.942Z,7.14
2023-02-22T22:07:14.434Z,7.17
2023-02-22T22:09:43.226Z,7.21
2023-02-22T22:12:11.838Z,7.13
2023-02-22T22:14:40.289Z,7.21
2023-02-22T22:17:09.607Z,7.17
2023-02-22T22:19:40.484Z,7.23
2023-02-22T22:22:10.510Z,7.21
2023-02-22T22:24:41.771Z,7.23
2023-02-22T22:27:12.967Z,7.19
2023-02-22T22:29:41.303Z,7.26
2023-02-22T22:32:10.592Z,7.25
2023-02-22T22:34:38.927Z,7.28
2023-02-22T22:37:11.333Z,7.26
2023-02-22T22:39:40.685Z,7.19
2023-02-22T22:42:09.119Z,7.20
2023-02-22T22:44:41.937Z,7.14
2023-02-22T22:47:12.251Z,7.07
2023-02-22T22:49:42.569Z,7.14
2023-02-22T22:52:11.730Z,6.99
2023-02-22T22:54:41.634Z,7.09
2023-02-22T22:57:11.524Z,7.09
2023-02-22T22:59:40.396Z,6.99
2023-02-22T23:02:11.124Z,7.06
2023-02-22T23:04:39.223Z,6.87
2023-02-22T23:07:07.429Z,6.91
2023-02-22T23:09:38.535Z,6.94
2023-02-22T23:12:16.729Z,6.88
2023-02-22T23:14:47.062Z,6.91
2023-02-22T23:17:31.037Z,6.90
2023-02-22T23:19:59.229Z,6.96
2023-02-22T23:22:31.018Z,7.01
2023-02-22T23:24:59.868Z,7.04
2023-02-22T23:27:29.212Z,7.02
2023-02-22T23:29:59.333Z,6.93
2023-02-22T23:32:27.816Z,6.97
2023-02-22T23:34:56.020Z,6.92
2023-02-22T23:37:24.929Z,6.91
2023-02-22T23:39:52.914Z,6.93
2023-02-22T23:42:23.039Z,6.95
2023-02-22T23:44:53.868Z,6.90
2023-02-22T23:47:21.668Z,6.91
2023-02-22T23:49:51.683Z,6.84
2023-02-22T23:52:24.094Z,6.81
2023-02-22T23:54:53.803Z,6.91
2023-02-22T23:57:21.823Z,6.87
2023-02-22T23:59:52.835Z,6.91
